createdAt,value
2018-04-12T00:01:07.595Z,95.50
2018-04-12T00:03:35.233Z,95.70
2018-04-12T00:06:03.623Z,96.90
2018-04-12T00:08:31.259Z,96.80
2018-04-12T00:10:58.887Z,97.10
2018-04-12T00:13:26.523Z,97.20
2018-04-12T00:15:54.152Z,97.10
2018-04-12T00:18:21.778Z,97.40
2018-04-12T00:20:49.417Z,97.40
2018-04-12T00:23:17.042Z,97.40
2018-04-12T00:25:44.679Z,97.30
2018-04-12T00:28:12.323Z,97.40
2018-04-12T00:30:39.960Z,97.30
2018-04-12T00:33:07.587Z,97.40
2018-04-12T00:35:35.225Z,97.30
2018-04-12T00:38:02.851Z,97.30
2018-04-12T00:40:30.483Z,97.10
2018-04-12T00:42:58.110Z,97.10
2018-04-12T00:45:25.746Z,97.00
2018-04-12T00:47:53.371Z,97.40
2018-04-12T00:50:21.009Z,97.20
2018-04-12T00:52:49.389Z,97.20
2018-04-12T00:55:17.779Z,97.20
2018-04-12T00:57:45.409Z,97.20
2018-04-12T01:00:13.023Z,97.30
2018-04-12T01:02:40.651Z,97.20
2018-04-12T01:05:08.270Z,97.30
2018-04-12T01:07:35.899Z,96.90
2018-04-12T01:10:04.289Z,96.80
2018-04-12T01:12:32.679Z,97.10
2018-04-12T01:15:00.306Z,97.00
2018-04-12T01:17:27.935Z,97.00
2018-04-12T01:19:55.559Z,97.10
2018-04-12T01:22:23.959Z,97.50
2018-04-12T01:24:51.584Z,97.40
2018-04-12T01:27:19.211Z,97.20
2018-04-12T01:29:46.834Z,97.20
2018-04-12T01:32:15.216Z,96.60
2018-04-12T01:34:42.854Z,96.40
2018-04-12T01:37:10.482Z,96.10
2018-04-12T01:39:38.099Z,96.20
2018-04-12T01:42:05.735Z,96.20
2018-04-12T01:44:33.363Z,96.40
2018-04-12T01:47:00.988Z,96.40
2018-04-12T01:49:28.607Z,96.50
2018-04-12T01:51:56.227Z,96.20
2018-04-12T01:54:23.847Z,96.20
2018-04-12T01:56:51.479Z,96.20
2018-04-12T01:59:19.874Z,96.00
2018-04-12T02:01:47.494Z,96.00
2018-04-12T02:04:15.118Z,96.00
2018-04-12T02:06:42.747Z,96.00
2018-04-12T02:09:10.366Z,96.10
2018-04-12T02:11:38.087Z,96.40
2018-04-12T02:14:06.574Z,96.50
2018-04-12T02:16:34.963Z,95.90
2018-04-12T02:19:03.355Z,96.00
2018-04-12T02:21:30.981Z,96.00
2018-04-12T02:23:58.600Z,95.90
2018-04-12T02:26:26.223Z,96.20
2018-04-12T02:28:53.886Z,96.10
2018-04-12T02:31:21.463Z,96.00
2018-04-12T02:33:49.084Z,96.10
2018-04-12T02:36:16.719Z,95.80
2018-04-12T02:38:44.343Z,95.90
2018-04-12T02:41:11.963Z,96.30
2018-04-12T02:43:39.595Z,96.10
2018-04-12T02:46:07.257Z,96.10
2018-04-12T02:48:34.880Z,96.10
2018-04-12T02:51:02.511Z,95.50
2018-04-12T02:53:30.895Z,95.90
2018-04-12T02:55:59.284Z,96.30
2018-04-12T02:58:27.667Z,96.50
2018-04-12T03:00:55.320Z,96.50
2018-04-12T03:03:22.943Z,96.10
2018-04-12T03:05:51.503Z,96.40
2018-04-12T03:08:19.118Z,96.20
2018-04-12T03:10:46.744Z,96.30
2018-04-12T03:13:14.363Z,96.10
2018-04-12T03:15:41.987Z,96.50
2018-04-12T03:18:11.522Z,96.80
2018-04-12T03:20:39.148Z,96.40
2018-04-12T03:23:06.766Z,96.40
2018-04-12T03:25:34.382Z,96.30
2018-04-12T03:28:02.002Z,96.20
2018-04-12T03:30:30.420Z,97.00
2018-04-12T03:32:58.036Z,96.80
2018-04-12T03:35:25.652Z,96.40
2018-04-12T03:37:53.288Z,96.80
2018-04-12T03:40:21.684Z,96.50
2018-04-12T03:42:49.303Z,96.50
2018-04-12T03:45:16.930Z,96.40
2018-04-12T03:47:44.560Z,96.10
2018-04-12T03:50:12.183Z,96.80
2018-04-12T03:52:39.804Z,97.00
2018-04-12T03:55:07.430Z,97.10
2018-04-12T03:57:35.059Z,97.00
2018-04-12T04:00:02.683Z,96.60
2018-04-12T04:02:30.307Z,96.60
2018-04-12T04:04:57.927Z,96.40
2018-04-12T04:07:25.542Z,96.40
2018-04-12T04:09:59.167Z,96.30
2018-04-12T04:12:26.790Z,96.50
2018-04-12T04:18:05.947Z,96.20
2018-04-12T04:20:45.627Z,96.30
2018-04-12T04:23:13.232Z,96.50
2018-04-12T04:25:48.599Z,96.70
2018-04-12T04:28:16.211Z,96.90
2018-04-12T04:30:44.607Z,97.10
2018-04-12T04:33:12.991Z,96.90
2018-04-12T04:35:40.619Z,96.90
2018-04-12T04:40:58.369Z,97.50
2018-04-12T04:43:26.013Z,97.50
2018-04-12T04:45:53.640Z,97.60
2018-04-12T04:48:21.269Z,97.70
2018-04-12T04:50:48.892Z,97.60
2018-04-12T04:53:16.539Z,97.70
2018-04-12T04:55:44.170Z,97.90
2018-04-12T04:58:12.559Z,97.90
2018-04-12T05:00:40.183Z,97.90
2018-04-12T05:03:07.803Z,98.00
2018-04-12T05:05:35.446Z,97.90
2018-04-12T05:08:03.832Z,97.90
2018-04-12T05:10:31.455Z,97.90
2018-04-12T05:12:59.088Z,97.80
2018-04-12T05:15:26.725Z,97.80
2018-04-12T05:17:55.104Z,97.80
2018-04-12T05:20:23.500Z,97.80
2018-04-12T05:22:51.133Z,97.80
2018-04-12T05:25:18.907Z,97.80
2018-04-12T05:27:47.329Z,97.80
2018-04-12T05:30:15.695Z,97.80
2018-04-12T05:32:43.315Z,97.80
2018-04-12T05:35:14.268Z,97.90
2018-04-12T05:37:41.917Z,97.90
2018-04-12T05:40:10.968Z,97.90
2018-04-12T05:42:38.595Z,97.90
2018-04-12T05:45:06.223Z,97.90
2018-04-12T05:47:33.849Z,98.00
2018-04-12T05:50:02.244Z,98.10
2018-04-12T05:52:30.631Z,98.10
2018-04-12T05:54:58.262Z,98.10
2018-04-12T05:57:25.895Z,98.10
2018-04-12T05:59:53.523Z,97.90
2018-04-12T06:02:21.936Z,97.80
2018-04-12T06:04:49.559Z,97.90
2018-04-12T06:07:17.968Z,97.90
2018-04-12T06:09:45.588Z,97.80
2018-04-12T06:12:13.215Z,97.80
2018-04-12T06:14:40.840Z,97.80
2018-04-12T06:17:09.238Z,98.00
2018-04-12T06:19:37.626Z,97.70
2018-04-12T06:22:05.255Z,97.70
2018-04-12T06:24:32.902Z,97.60
2018-04-12T06:27:00.531Z,97.70
2018-04-12T06:29:28.151Z,97.60
2018-04-12T06:34:49.454Z,96.90
2018-04-12T06:37:17.107Z,96.90
2018-04-12T06:39:44.779Z,97.10
2018-04-12T06:42:12.418Z,97.40
2018-04-12T06:44:40.051Z,97.00
2018-04-12T06:47:07.696Z,97.00
2018-04-12T06:49:35.327Z,97.20
2018-04-12T06:52:02.951Z,96.90
2018-04-12T06:54:30.674Z,96.90
2018-04-12T06:56:58.316Z,97.10
2018-04-12T06:59:25.944Z,96.60
2018-04-12T07:01:53.567Z,96.50
2018-04-12T07:04:21.204Z,96.50
2018-04-12T07:06:49.594Z,96.10
2018-04-12T07:09:17.223Z,96.10
2018-04-12T07:11:44.859Z,95.90
2018-04-12T07:14:12.479Z,96.10
2018-04-12T07:16:40.875Z,95.90
2018-04-12T07:19:08.523Z,95.90
2018-04-12T07:21:36.922Z,95.80
2018-04-12T07:24:04.555Z,95.80
2018-04-12T07:26:32.203Z,95.70
2018-04-12T07:28:59.829Z,95.80
2018-04-12T07:31:27.451Z,95.60
2018-04-12T07:33:55.075Z,95.00
2018-04-12T07:36:22.709Z,95.30
2018-04-12T07:38:51.104Z,95.00
2018-04-12T07:41:18.739Z,95.00
2018-04-12T07:43:46.420Z,95.20
2018-04-12T07:46:14.002Z,94.80
2018-04-12T07:48:41.637Z,94.40
2018-04-12T07:51:09.277Z,94.10
2018-04-12T07:53:36.898Z,94.00
2018-04-12T07:56:04.538Z,94.10
2018-04-12T07:58:32.170Z,94.00
2018-04-12T08:00:59.799Z,94.20
2018-04-12T08:03:27.423Z,93.70
2018-04-12T08:05:55.047Z,93.90
2018-04-12T08:08:22.675Z,93.70
2018-04-12T08:10:51.071Z,93.60
2018-04-12T08:13:19.473Z,93.60
2018-04-12T08:15:47.099Z,93.60
2018-04-12T08:18:14.724Z,93.50
2018-04-12T08:20:42.359Z,93.30
2018-04-12T08:23:09.988Z,93.20
2018-04-12T08:25:37.640Z,93.50
2018-04-12T08:28:05.237Z,93.10
2018-04-12T08:30:33.627Z,91.60
2018-04-12T08:33:02.023Z,91.50
2018-04-12T08:35:29.656Z,91.50
2018-04-12T08:37:57.281Z,91.60
2018-04-12T08:40:24.999Z,91.60
2018-04-12T08:42:52.627Z,91.90
2018-04-12T08:45:20.260Z,91.90
2018-04-12T08:47:47.894Z,91.70
2018-04-12T08:50:15.515Z,91.80
2018-04-12T08:52:43.143Z,91.90
2018-04-12T08:55:11.535Z,92.80
2018-04-12T08:57:39.171Z,92.60
2018-04-12T09:00:06.808Z,93.80
2018-04-12T09:02:34.436Z,93.90
2018-04-12T09:05:02.071Z,93.40
2018-04-12T09:07:29.691Z,93.80
2018-04-12T09:09:57.318Z,93.70
2018-04-12T09:12:25.800Z,94.20
2018-04-12T09:14:53.422Z,94.20
2018-04-12T09:17:21.048Z,94.60
2018-04-12T09:19:48.680Z,94.60
2018-04-12T09:22:16.314Z,94.30
2018-04-12T09:24:43.945Z,94.80
2018-04-12T09:27:12.351Z,94.70
2018-04-12T09:29:39.978Z,94.70
2018-04-12T09:32:08.382Z,94.40
2018-04-12T09:34:36.007Z,94.40
2018-04-12T09:37:03.631Z,93.80
2018-04-12T09:39:31.255Z,93.90
2018-04-12T09:41:58.894Z,93.40
2018-04-12T09:44:26.511Z,92.40
2018-04-12T09:46:54.139Z,91.40
2018-04-12T09:49:21.789Z,91.00
2018-04-12T09:51:49.400Z,91.40
2018-04-12T09:54:17.027Z,90.70
2018-04-12T09:56:44.663Z,90.70
2018-04-12T09:59:12.286Z,85.80
2018-04-12T10:01:40.679Z,82.40
2018-04-12T10:04:09.068Z,83.30
2018-04-12T10:06:37.456Z,85.80
2018-04-12T10:09:05.131Z,85.70
2018-04-12T10:11:32.716Z,84.00
2018-04-12T10:14:00.339Z,83.90
2018-04-12T10:16:28.732Z,82.50
2018-04-12T10:18:56.361Z,82.30
2018-04-12T10:21:24.050Z,83.50
2018-04-12T10:23:52.519Z,81.10
2018-04-12T10:26:20.175Z,80.10
2018-04-12T10:28:47.855Z,79.00
2018-04-12T10:31:15.428Z,79.40
2018-04-12T10:33:43.051Z,78.00
2018-04-12T10:36:10.676Z,78.60
2018-04-12T10:38:39.092Z,77.80
2018-04-12T10:41:06.703Z,77.70
2018-04-12T10:43:34.322Z,76.80
2018-04-12T10:46:01.963Z,75.30
2018-04-12T10:48:30.352Z,72.20
2018-04-12T10:50:57.975Z,71.80
2018-04-12T10:53:25.603Z,70.80
2018-04-12T10:55:53.223Z,69.70
2018-04-12T10:58:20.851Z,70.50
2018-04-12T11:00:48.537Z,70.70
2018-04-12T11:03:16.134Z,72.10
2018-04-12T11:05:44.528Z,71.20
2018-04-12T11:08:12.160Z,71.20
2018-04-12T11:10:39.796Z,72.40
2018-04-12T11:13:07.427Z,72.30
2018-04-12T11:15:35.051Z,71.00
2018-04-12T11:18:02.672Z,69.10
2018-04-12T11:20:30.294Z,68.90
2018-04-12T11:22:57.938Z,68.80
2018-04-12T11:25:25.577Z,69.10
2018-04-12T11:27:53.195Z,68.20
2018-04-12T11:30:20.819Z,68.90
2018-04-12T11:32:48.451Z,68.60
2018-04-12T11:35:16.104Z,66.90
2018-04-12T11:37:43.707Z,63.10
2018-04-12T11:40:11.331Z,64.50
2018-04-12T11:42:39.727Z,59.90
2018-04-12T11:45:07.359Z,59.90
2018-04-12T11:47:34.986Z,58.70
2018-04-12T11:50:02.622Z,56.80
2018-04-12T11:52:31.033Z,53.90
2018-04-12T11:54:58.715Z,53.90
2018-04-12T11:57:26.291Z,51.90
2018-04-12T11:59:53.915Z,52.50
2018-04-12T12:02:21.575Z,51.80
2018-04-12T12:04:49.171Z,53.30
2018-04-12T12:07:16.800Z,52.80
2018-04-12T12:09:45.187Z,53.40
2018-04-12T12:12:13.578Z,52.40
2018-04-12T12:14:41.207Z,52.40
2018-04-12T12:17:08.842Z,51.60
2018-04-12T12:19:36.471Z,49.20
2018-04-12T12:22:04.891Z,49.50
2018-04-12T12:24:32.511Z,49.40
2018-04-12T12:27:00.142Z,47.30
2018-04-12T12:29:27.766Z,47.50
2018-04-12T12:31:55.401Z,46.90
2018-04-12T12:34:23.010Z,47.50
2018-04-12T12:36:50.649Z,46.10
2018-04-12T12:39:19.047Z,44.50
2018-04-12T12:41:46.667Z,44.30
2018-04-12T12:44:14.295Z,43.80
2018-04-12T12:46:42.019Z,42.20
2018-04-12T12:49:10.411Z,43.60
2018-04-12T12:51:38.803Z,43.70
2018-04-12T12:54:06.436Z,43.60
2018-04-12T12:56:34.054Z,44.40
2018-04-12T12:59:01.696Z,45.20
2018-04-12T13:01:37.812Z,45.40
2018-04-12T13:04:05.816Z,45.40
2018-04-12T13:06:33.437Z,42.90
2018-04-12T13:09:01.125Z,42.20
2018-04-12T13:11:35.440Z,42.30
2018-04-12T13:14:03.071Z,42.70
2018-04-12T13:16:30.695Z,42.30
2018-04-12T13:19:00.299Z,41.20
2018-04-12T13:21:28.686Z,42.50
2018-04-12T13:23:57.074Z,41.50
2018-04-12T13:26:25.650Z,41.50
2018-04-12T13:28:53.253Z,41.40
2018-04-12T13:31:20.903Z,41.60
2018-04-12T13:33:48.530Z,41.30
2018-04-12T13:36:16.167Z,39.90
2018-04-12T13:38:43.787Z,40.80
2018-04-12T13:41:11.419Z,40.60
2018-04-12T13:43:39.198Z,38.30
2018-04-12T13:46:06.791Z,40.10
2018-04-12T13:48:35.185Z,40.10
2018-04-12T13:51:03.583Z,40.00
2018-04-12T13:53:31.210Z,40.00
2018-04-12T13:55:58.835Z,39.90
2018-04-12T13:58:26.467Z,40.00
2018-04-12T14:01:01.344Z,40.60
2018-04-12T14:03:28.971Z,42.10
2018-04-12T14:05:56.599Z,42.60
2018-04-12T14:08:24.219Z,43.50
2018-04-12T14:10:51.847Z,42.60
2018-04-12T14:13:19.474Z,45.30
2018-04-12T14:15:47.101Z,47.40
2018-04-12T14:18:14.720Z,47.30
2018-04-12T14:20:42.346Z,47.30
2018-04-12T14:23:09.975Z,45.00
2018-04-12T14:25:37.603Z,44.40
2018-04-12T14:28:05.303Z,44.50
2018-04-12T14:30:32.923Z,44.30
2018-04-12T14:33:00.547Z,47.40
2018-04-12T14:35:28.935Z,47.00
2018-04-12T14:37:56.579Z,46.80
2018-04-12T14:40:24.211Z,46.40
2018-04-12T14:42:51.831Z,47.20
2018-04-12T14:45:20.233Z,46.40
2018-04-12T14:47:47.851Z,46.40
2018-04-12T14:50:15.491Z,47.80
2018-04-12T14:52:43.106Z,49.40
2018-04-12T14:55:11.496Z,51.80
2018-04-12T14:57:39.906Z,51.50
2018-04-12T15:00:07.519Z,51.50
2018-04-12T15:02:35.143Z,50.30
2018-04-12T15:05:02.777Z,51.70
2018-04-12T15:07:31.178Z,52.70
2018-04-12T15:09:58.807Z,52.70
2018-04-12T15:15:13.495Z,56.50
2018-04-12T15:17:41.887Z,58.10
2018-04-12T15:20:10.282Z,57.60
2018-04-12T15:22:37.927Z,57.60
2018-04-12T15:25:06.318Z,58.60
2018-04-12T15:27:34.715Z,59.20
2018-04-12T15:30:02.347Z,59.10
2018-04-12T15:32:29.963Z,61.20
2018-04-12T15:34:57.593Z,61.40
2018-04-12T15:37:25.986Z,62.00
2018-04-12T15:39:54.374Z,62.40
2018-04-12T15:42:22.015Z,62.20
2018-04-12T15:44:49.635Z,61.80
2018-04-12T15:47:18.122Z,62.10
2018-04-12T15:49:45.734Z,62.00
2018-04-12T15:52:18.864Z,62.90
2018-04-12T15:54:47.242Z,63.80
2018-04-12T15:57:14.867Z,63.90
2018-04-12T15:59:42.495Z,68.50
2018-04-12T16:02:27.712Z,70.00
2018-04-12T16:04:56.104Z,79.20
2018-04-12T16:07:24.500Z,82.90
2018-04-12T16:09:52.131Z,82.70
2018-04-12T16:12:19.760Z,81.70
2018-04-12T16:14:47.389Z,83.80
2018-04-12T16:17:15.778Z,84.50
2018-04-12T16:19:43.416Z,84.40
2018-04-12T16:22:11.082Z,85.30
2018-04-12T16:24:38.716Z,84.50
2018-04-12T16:27:06.348Z,85.10
2018-04-12T16:29:33.970Z,84.00
2018-04-12T16:32:01.594Z,83.90
2018-04-12T16:34:32.592Z,81.00
2018-04-12T16:37:00.221Z,79.30
2018-04-12T16:39:27.855Z,81.50
2018-04-12T16:41:55.487Z,80.60
2018-04-12T16:44:23.131Z,81.10
2018-04-12T16:46:50.744Z,83.40
2018-04-12T16:49:18.367Z,82.50
2018-04-12T16:51:45.994Z,82.80
2018-04-12T16:54:13.623Z,83.20
2018-04-12T16:56:42.019Z,86.70
2018-04-12T16:59:10.407Z,84.50
2018-04-12T17:01:38.036Z,84.30
2018-04-12T17:04:05.659Z,81.60
2018-04-12T17:06:33.292Z,82.20
2018-04-12T17:09:01.691Z,81.60
2018-04-12T17:11:30.079Z,81.80
2018-04-12T17:13:57.712Z,81.60
2018-04-12T17:16:25.338Z,82.30
2018-04-12T17:18:52.968Z,83.20
2018-04-12T17:21:21.368Z,83.10
2018-04-12T17:23:48.998Z,83.00
2018-04-12T17:26:16.620Z,82.50
2018-04-12T17:28:44.256Z,82.70
2018-04-12T17:31:11.886Z,82.80
2018-04-12T17:33:39.511Z,81.80
2018-04-12T17:36:07.143Z,83.40
2018-04-12T17:38:34.779Z,83.20
2018-04-12T17:41:02.405Z,83.00
2018-04-12T17:43:30.036Z,82.40
2018-04-12T17:45:58.429Z,82.30
2018-04-12T17:48:26.817Z,81.20
2018-04-12T17:50:54.435Z,81.00
2018-04-12T17:53:22.063Z,80.70
2018-04-12T17:55:49.697Z,80.90
2018-04-12T17:58:17.314Z,83.10
2018-04-12T18:00:44.992Z,83.80
2018-04-12T18:03:12.604Z,83.90
2018-04-12T18:05:40.228Z,84.00
2018-04-12T18:08:07.867Z,84.10
2018-04-12T18:10:35.487Z,84.30
2018-04-12T18:13:11.807Z,85.10
2018-04-12T18:15:39.436Z,84.90
2018-04-12T18:18:07.822Z,84.10
2018-04-12T18:20:35.455Z,83.10
2018-04-12T18:23:03.080Z,79.60
2018-04-12T18:25:30.710Z,82.50
2018-04-12T18:27:59.103Z,81.70
2018-04-12T18:30:26.740Z,81.50
2018-04-12T18:32:54.375Z,81.50
2018-04-12T18:35:22.004Z,82.70
2018-04-12T18:37:49.622Z,82.70
2018-04-12T18:40:17.247Z,82.40
2018-04-12T18:42:44.878Z,82.10
2018-04-12T18:45:12.502Z,82.50
2018-04-12T18:47:40.127Z,82.00
2018-04-12T18:50:07.762Z,82.70
2018-04-12T18:52:35.382Z,82.90
2018-04-12T18:55:03.012Z,83.60
2018-04-12T18:57:30.651Z,84.50
2018-04-12T18:59:58.275Z,84.70
2018-04-12T19:02:25.934Z,84.60
2018-04-12T19:04:53.559Z,85.60
2018-04-12T19:07:21.183Z,84.60
2018-04-12T19:09:48.810Z,85.40
2018-04-12T19:12:17.204Z,85.40
2018-04-12T19:14:45.595Z,85.70
2018-04-12T19:17:13.223Z,85.70
2018-04-12T19:19:41.815Z,85.60
2018-04-12T19:22:09.435Z,85.80
2018-04-12T19:24:37.067Z,86.00
2018-04-12T19:27:05.997Z,86.20
2018-04-12T19:29:33.717Z,86.00
2018-04-12T19:32:02.286Z,86.20
2018-04-12T19:34:29.941Z,85.80
2018-04-12T19:36:57.623Z,86.60
2018-04-12T19:39:25.444Z,86.30
2018-04-12T19:41:53.607Z,86.70
2018-04-12T19:44:21.256Z,85.10
2018-04-12T19:46:49.209Z,86.00
2018-04-12T19:49:16.941Z,86.40
2018-04-12T19:51:44.626Z,86.30
2018-04-12T19:54:12.277Z,86.70
2018-04-12T19:56:40.366Z,86.60
2018-04-12T19:59:08.033Z,87.00
2018-04-12T20:01:35.725Z,87.50
2018-04-12T20:04:03.396Z,85.80
2018-04-12T20:06:31.103Z,86.20
2018-04-12T20:08:59.519Z,87.50
2018-04-12T20:11:27.173Z,87.50
2018-04-12T20:13:54.857Z,87.50
2018-04-12T20:16:22.483Z,87.90
2018-04-12T20:18:50.921Z,88.20
2018-04-12T20:21:26.277Z,88.10
2018-04-12T20:23:53.942Z,87.50
2018-04-12T20:26:21.609Z,88.90
2018-04-12T20:28:49.291Z,89.10
2018-04-12T20:31:16.936Z,88.30
2018-04-12T20:33:44.609Z,88.20
2018-04-12T20:36:12.343Z,88.90
2018-04-12T20:38:40.852Z,88.50
2018-04-12T20:41:08.562Z,88.40
2018-04-12T20:43:36.236Z,87.60
2018-04-12T20:46:03.940Z,88.20
2018-04-12T20:48:31.599Z,87.90
2018-04-12T20:51:03.733Z,87.60
2018-04-12T20:53:31.522Z,87.30
2018-04-12T20:56:01.181Z,87.90
2018-04-12T20:58:28.842Z,88.20
2018-04-12T21:00:56.539Z,88.80
2018-04-12T21:03:24.338Z,89.60
2018-04-12T21:05:52.796Z,88.50
2018-04-12T21:08:21.321Z,88.30
2018-04-12T21:10:48.986Z,88.30
2018-04-12T21:13:16.713Z,88.30
2018-04-12T21:15:45.135Z,88.80
2018-04-12T21:18:16.419Z,88.80
2018-04-12T21:20:44.047Z,88.90
2018-04-12T21:23:11.676Z,88.90
2018-04-12T21:25:40.068Z,89.90
2018-04-12T21:28:07.807Z,89.80
2018-04-12T21:30:35.436Z,90.10
2018-04-12T21:33:03.065Z,89.60
2018-04-12T21:35:31.457Z,88.50
2018-04-12T21:37:59.076Z,88.50
2018-04-12T21:40:26.699Z,89.20
2018-04-12T21:42:54.323Z,88.80
2018-04-12T21:45:21.954Z,87.40
2018-04-12T21:47:49.582Z,87.90
2018-04-12T21:50:17.219Z,89.20
2018-04-12T21:52:44.854Z,88.50
2018-04-12T21:55:12.483Z,88.30
2018-04-12T21:57:40.118Z,88.20
2018-04-12T22:00:07.750Z,88.50
2018-04-12T22:02:35.380Z,89.50
2018-04-12T22:05:03.007Z,88.30
2018-04-12T22:07:30.631Z,90.00
2018-04-12T22:09:58.259Z,90.00
2018-04-12T22:12:26.651Z,90.30
2018-04-12T22:14:55.047Z,90.80
2018-04-12T22:17:22.682Z,90.40
2018-04-12T22:19:50.307Z,90.40
2018-04-12T22:22:17.943Z,89.70
2018-04-12T22:24:45.573Z,89.60
2018-04-12T22:27:13.962Z,89.30
2018-04-12T22:29:41.582Z,89.30
2018-04-12T22:32:09.211Z,90.30
2018-04-12T22:34:37.614Z,89.30
2018-04-12T22:37:05.235Z,89.30
2018-04-12T22:39:32.863Z,87.60
2018-04-12T22:42:00.498Z,88.50
2018-04-12T22:44:28.878Z,86.20
2018-04-12T22:46:57.280Z,87.40
2018-04-12T22:49:24.911Z,87.30
2018-04-12T22:51:52.535Z,87.40
2018-04-12T22:54:20.168Z,87.70
2018-04-12T22:56:47.807Z,86.20
2018-04-12T22:59:15.440Z,86.60
2018-04-12T23:01:43.064Z,87.70
2018-04-12T23:04:13.271Z,88.00
2018-04-12T23:06:41.658Z,90.10
2018-04-12T23:09:10.059Z,89.50
2018-04-12T23:11:37.695Z,89.40
2018-04-12T23:14:06.088Z,88.30
2018-04-12T23:16:33.723Z,88.70
2018-04-12T23:19:01.351Z,88.40
2018-04-12T23:21:28.982Z,87.90
2018-04-12T23:23:57.422Z,88.30
2018-04-12T23:26:27.782Z,87.80
2018-04-12T23:28:55.408Z,87.70
2018-04-12T23:31:23.127Z,87.60
2018-04-12T23:33:50.769Z,87.00
2018-04-12T23:36:18.384Z,86.30
2018-04-12T23:38:46.014Z,86.50
2018-04-12T23:41:13.643Z,86.80
2018-04-12T23:43:41.270Z,86.80
2018-04-12T23:46:09.672Z,87.30
2018-04-12T23:48:37.295Z,87.30
2018-04-12T23:51:04.920Z,85.80
2018-04-12T23:53:32.544Z,86.90
2018-04-12T23:56:00.940Z,87.30
2018-04-12T23:58:29.334Z,88.60
